Terminal Aerodrome Forecast
Issued by NWS La Crosse, WI

Home | Current Version | Previous Version | Text Only | Print | Product List | Glossary On
Versions: 1 2 3 4 5 6 7 8 9 10 11 12 13 14 15 16 17 18 19 20 21 22 23 24 25 26 27 28 29 30 31 32 33 34 35 36 37 38 39 40 41 42 43
469
FTUS43 KARX 061724
TAFRST
TAF
KRST 061724Z 0618/0718 22013KT 2SM BR OVC005
      TEMPO 0620/0623 6SM BR BKN009 OVC015
     FM062300 22014KT P6SM OVC100
     FM070800 22015KT P6SM FEW200
     FM071400 25015KT P6SM OVC040=

USA.gov is the U.S. government's official web portal to all federal, state and local government web resources and services.